createdAt,value
2023-01-30T00:01:21.827Z,84.53
2023-01-30T00:04:09.828Z,86.09
2023-01-30T00:06:55.079Z,84.75
2023-01-30T00:09:41.267Z,83.66
2023-01-30T00:12:26.789Z,85.06
2023-01-30T00:15:12.254Z,84.06
2023-01-30T00:18:00.192Z,84.18
2023-01-30T00:20:45.521Z,83.53
2023-01-30T00:23:32.124Z,83.55
2023-01-30T00:26:17.714Z,82.74
2023-01-30T00:29:02.831Z,83.48
2023-01-30T00:31:49.091Z,83.16
2023-01-30T00:34:35.470Z,83.10
2023-01-30T00:37:20.881Z,83.95
2023-01-30T00:40:07.583Z,82.73
2023-01-30T00:46:45.419Z,81.92
2023-01-30T00:49:31.884Z,83.52
2023-01-30T00:52:17.552Z,83.32
2023-01-30T00:55:06.146Z,82.87
2023-01-30T00:57:51.399Z,81.57
2023-01-30T01:00:36.879Z,82.27
2023-01-30T01:03:22.910Z,81.86
2023-01-30T01:06:08.472Z,81.83
2023-01-30T01:08:53.951Z,81.69
2023-01-30T01:11:39.221Z,81.81
2023-01-30T01:14:27.684Z,82.54
2023-01-30T01:17:13.114Z,82.80
2023-01-30T01:19:58.298Z,83.00
2023-01-30T01:22:45.553Z,83.95
2023-01-30T01:25:31.421Z,84.06
2023-01-30T01:28:23.697Z,85.18
2023-01-30T01:31:10.928Z,82.75
2023-01-30T01:33:56.686Z,83.69
2023-01-30T01:36:59.153Z,82.63
2023-01-30T01:40:03.498Z,81.71
2023-01-30T01:42:50.410Z,81.34
2023-01-30T01:45:35.943Z,80.93
2023-01-30T01:48:27.917Z,81.64
2023-01-30T01:51:30.728Z,82.63
2023-01-30T01:54:25.410Z,81.88
2023-01-30T01:57:16.830Z,81.15
2023-01-30T02:00:11.650Z,81.94
2023-01-30T02:03:03.568Z,80.90
2023-01-30T02:05:52.551Z,81.20
2023-01-30T02:08:41.379Z,81.89
2023-01-30T02:11:31.515Z,81.75
2023-01-30T02:14:19.714Z,83.02
2023-01-30T02:17:05.150Z,82.07
2023-01-30T02:20:28.082Z,84.99
2023-01-30T02:24:01.551Z,84.04
2023-01-30T02:26:50.198Z,83.41
2023-01-30T02:30:05.195Z,82.37
2023-01-30T02:33:03.800Z,82.57
2023-01-30T02:36:34.810Z,83.54
2023-01-30T02:40:07.148Z,83.35
2023-01-30T02:43:21.219Z,82.56
2023-01-30T02:46:21.042Z,83.10
2023-01-30T02:49:17.877Z,83.29
2023-01-30T02:52:08.212Z,83.86
2023-01-30T02:54:53.747Z,84.10
2023-01-30T02:57:39.101Z,83.19
2023-01-30T03:00:37.142Z,81.41
2023-01-30T03:03:28.684Z,80.03
2023-01-30T03:06:29.367Z,80.90
2023-01-30T03:09:30.443Z,79.57
2023-01-30T03:12:33.604Z,80.96
2023-01-30T03:15:22.217Z,82.36
2023-01-30T03:18:09.408Z,81.23
2023-01-30T03:20:55.355Z,80.29
2023-01-30T03:23:40.805Z,80.64
2023-01-30T03:26:30.716Z,81.05
2023-01-30T03:29:16.339Z,82.36
2023-01-30T03:32:02.168Z,84.35
2023-01-30T03:34:47.921Z,84.08
2023-01-30T03:37:33.322Z,83.88
2023-01-30T03:40:19.620Z,83.53
2023-01-30T03:43:05.508Z,81.96
2023-01-30T03:45:53.291Z,81.70
2023-01-30T03:48:39.158Z,81.45
2023-01-30T03:51:24.767Z,82.01
2023-01-30T03:54:12.263Z,82.10
2023-01-30T03:56:57.544Z,83.28
2023-01-30T03:59:43.352Z,82.36
2023-01-30T04:02:30.754Z,83.09
2023-01-30T04:05:18.777Z,84.65
2023-01-30T04:08:11.128Z,84.90
2023-01-30T04:10:57.162Z,85.35
2023-01-30T04:13:42.920Z,84.31
2023-01-30T04:16:29.239Z,83.93
2023-01-30T04:19:33.863Z,84.49
2023-01-30T04:22:19.724Z,84.79
2023-01-30T04:25:06.169Z,83.97
2023-01-30T04:27:51.857Z,84.40
2023-01-30T04:30:41.342Z,84.99
2023-01-30T04:33:52.496Z,85.82
2023-01-30T04:36:38.502Z,85.35
2023-01-30T04:39:24.279Z,86.35
2023-01-30T04:42:09.416Z,86.48
2023-01-30T04:45:03.492Z,87.05
2023-01-30T04:47:49.998Z,87.22
2023-01-30T04:50:38.891Z,86.15
2023-01-30T04:53:25.778Z,86.24
2023-01-30T04:56:13.693Z,87.10
2023-01-30T04:58:59.338Z,86.39
2023-01-30T05:01:48.547Z,85.88
2023-01-30T05:04:33.943Z,85.95
2023-01-30T05:07:19.406Z,86.47
2023-01-30T05:10:05.388Z,86.84
2023-01-30T05:12:50.797Z,86.11
2023-01-30T05:15:39.973Z,86.24
2023-01-30T05:18:25.608Z,86.21
2023-01-30T05:21:14.368Z,86.23
2023-01-30T05:23:59.964Z,86.14
2023-01-30T05:26:45.414Z,86.89
2023-01-30T05:29:31.289Z,86.53
2023-01-30T05:32:18.513Z,86.67
2023-01-30T05:35:04.144Z,86.57
2023-01-30T05:37:52.836Z,86.41
2023-01-30T05:40:38.077Z,86.39
2023-01-30T05:43:23.505Z,86.82
2023-01-30T05:46:11.574Z,85.83
2023-01-30T05:48:57.610Z,86.57
2023-01-30T05:51:43.044Z,86.42
2023-01-30T05:54:28.523Z,86.11
2023-01-30T05:57:13.991Z,86.01
2023-01-30T05:59:59.317Z,86.85
2023-01-30T06:02:44.769Z,85.81
2023-01-30T06:05:30.505Z,85.64
2023-01-30T06:08:15.889Z,86.39
2023-01-30T06:11:04.496Z,87.23
2023-01-30T06:13:50.448Z,86.47
2023-01-30T06:16:36.023Z,87.52
2023-01-30T06:19:21.537Z,87.90
2023-01-30T06:22:06.910Z,88.80
2023-01-30T06:24:52.228Z,88.44
2023-01-30T06:27:37.553Z,88.63
2023-01-30T06:30:22.934Z,88.12
2023-01-30T06:33:08.796Z,88.46
2023-01-30T06:35:54.135Z,89.06
2023-01-30T06:38:39.359Z,89.14
2023-01-30T06:41:24.763Z,88.44
2023-01-30T06:44:10.270Z,88.83
2023-01-30T06:46:55.939Z,88.89
2023-01-30T06:49:41.769Z,88.50
2023-01-30T06:52:27.188Z,88.47
2023-01-30T06:55:15.343Z,88.38
2023-01-30T06:58:03.872Z,89.09
2023-01-30T07:00:49.048Z,88.76
2023-01-30T07:03:34.322Z,87.88
2023-01-30T07:06:20.067Z,88.58
2023-01-30T07:09:05.511Z,88.01
2023-01-30T07:11:51.370Z,87.74
2023-01-30T07:14:36.736Z,87.38
2023-01-30T07:17:23.037Z,87.16
2023-01-30T07:20:10.087Z,87.94
2023-01-30T07:22:56.458Z,87.67
2023-01-30T07:25:41.931Z,87.11
2023-01-30T07:28:27.446Z,87.79
2023-01-30T07:31:12.867Z,87.07
2023-01-30T07:33:58.275Z,87.21
2023-01-30T07:36:43.662Z,87.25
2023-01-30T07:39:29.067Z,87.16
2023-01-30T07:42:14.470Z,86.84
2023-01-30T07:44:59.735Z,87.09
2023-01-30T07:47:45.123Z,86.48
2023-01-30T07:50:30.815Z,87.00
2023-01-30T07:53:18.740Z,87.48
2023-01-30T07:56:14.174Z,87.15
2023-01-30T07:59:00.085Z,88.00
2023-01-30T08:01:45.094Z,88.11
2023-01-30T08:04:30.475Z,88.89
2023-01-30T08:07:15.666Z,89.92
2023-01-30T08:10:01.191Z,89.18
2023-01-30T08:12:49.677Z,89.21
2023-01-30T08:15:34.972Z,88.51
2023-01-30T08:18:20.538Z,89.19
2023-01-30T08:21:07.087Z,88.47
2023-01-30T08:23:52.488Z,88.15
2023-01-30T08:26:38.067Z,88.73
2023-01-30T08:29:23.951Z,88.53
2023-01-30T08:32:09.334Z,89.53
2023-01-30T08:34:54.756Z,89.54
2023-01-30T08:37:41.213Z,89.75
2023-01-30T08:40:26.627Z,89.52
2023-01-30T08:43:11.951Z,89.26
2023-01-30T08:45:57.205Z,90.11
2023-01-30T08:48:49.849Z,89.96
2023-01-30T08:51:36.139Z,89.93
2023-01-30T08:54:21.706Z,89.10
2023-01-30T08:57:07.382Z,89.88
2023-01-30T08:59:52.812Z,88.58
2023-01-30T09:02:38.502Z,88.53
2023-01-30T09:05:24.899Z,87.94
2023-01-30T09:08:10.097Z,88.30
2023-01-30T09:11:04.535Z,87.46
2023-01-30T09:13:50.346Z,88.51
2023-01-30T09:16:35.935Z,88.32
2023-01-30T09:19:26.908Z,88.00
2023-01-30T09:22:12.207Z,88.79
2023-01-30T09:24:59.049Z,86.88
2023-01-30T09:27:45.056Z,88.16
2023-01-30T09:30:30.744Z,88.55
2023-01-30T09:33:20.275Z,87.10
2023-01-30T09:36:06.102Z,86.79
2023-01-30T09:38:51.229Z,86.75
2023-01-30T09:42:06.018Z,87.99
2023-01-30T09:45:20.736Z,88.43
2023-01-30T09:48:25.761Z,89.18
2023-01-30T09:51:26.030Z,88.90
2023-01-30T09:54:24.511Z,88.47
2023-01-30T09:57:24.770Z,88.44
2023-01-30T10:00:14.220Z,88.53
2023-01-30T10:03:13.111Z,88.55
2023-01-30T10:06:07.147Z,89.34
2023-01-30T10:09:21.471Z,89.33
2023-01-30T10:12:16.148Z,89.62
2023-01-30T10:15:07.926Z,89.49
2023-01-30T10:18:17.854Z,89.38
2023-01-30T10:21:37.003Z,89.59
2023-01-30T10:24:50.701Z,89.02
2023-01-30T10:27:37.682Z,88.95
2023-01-30T10:30:23.359Z,88.27
2023-01-30T10:33:22.647Z,89.18
2023-01-30T10:36:14.529Z,89.06
2023-01-30T10:39:02.777Z,88.75
2023-01-30T10:41:59.691Z,88.49
2023-01-30T10:44:45.925Z,86.35
2023-01-30T10:47:56.448Z,86.93
2023-01-30T10:50:58.503Z,88.10
2023-01-30T10:53:56.625Z,88.30
2023-01-30T10:57:08.193Z,87.63
2023-01-30T11:00:02.415Z,87.98
2023-01-30T11:03:09.369Z,89.92
2023-01-30T11:06:06.210Z,88.65
2023-01-30T11:08:54.095Z,88.83
2023-01-30T11:11:52.669Z,89.54
2023-01-30T11:15:04.016Z,88.51
2023-01-30T11:17:49.819Z,89.02
2023-01-30T11:20:44.183Z,89.97
2023-01-30T11:23:34.869Z,89.62
2023-01-30T11:26:45.463Z,89.23
2023-01-30T11:29:35.127Z,89.43
2023-01-30T11:32:27.105Z,89.15
2023-01-30T11:35:15.316Z,89.18
2023-01-30T11:38:24.330Z,90.97
2023-01-30T11:41:09.465Z,90.00
2023-01-30T11:44:03.597Z,90.08
2023-01-30T11:46:49.499Z,89.56
2023-01-30T11:49:57.081Z,89.66
2023-01-30T11:52:46.876Z,89.19
2023-01-30T11:55:37.705Z,89.73
2023-01-30T11:58:23.059Z,88.92
2023-01-30T12:01:11.064Z,89.47
2023-01-30T12:03:58.411Z,89.09
2023-01-30T12:06:44.385Z,88.02
2023-01-30T12:09:37.329Z,88.16
2023-01-30T12:12:32.807Z,88.87
2023-01-30T12:15:22.283Z,88.82
2023-01-30T12:18:25.436Z,89.63
2023-01-30T12:21:22.089Z,89.27
2023-01-30T12:24:20.934Z,88.83
2023-01-30T12:27:23.786Z,89.38
2023-01-30T12:30:13.445Z,88.31
2023-01-30T12:36:01.179Z,86.85
2023-01-30T12:39:03.167Z,86.74
2023-01-30T12:41:56.710Z,85.90
2023-01-30T12:45:17.815Z,86.20
2023-01-30T12:48:29.032Z,86.39
2023-01-30T12:51:14.469Z,88.06
2023-01-30T12:54:05.800Z,87.17
2023-01-30T12:57:09.536Z,86.85
2023-01-30T13:00:05.973Z,87.51
2023-01-30T13:02:55.984Z,86.10
2023-01-30T13:06:07.543Z,87.20
2023-01-30T13:09:06.140Z,86.31
2023-01-30T13:12:08.480Z,87.08
2023-01-30T13:15:14.892Z,88.26
2023-01-30T13:18:03.398Z,88.12
2023-01-30T13:21:10.610Z,88.27
2023-01-30T13:24:16.692Z,88.99
2023-01-30T13:27:06.388Z,89.20
2023-01-30T13:29:53.851Z,89.18
2023-01-30T13:32:43.499Z,88.49
2023-01-30T13:35:37.026Z,88.54
2023-01-30T13:38:26.739Z,88.32
2023-01-30T13:41:17.288Z,87.81
2023-01-30T13:44:16.464Z,88.42
2023-01-30T13:47:23.202Z,88.76
2023-01-30T13:50:33.230Z,87.73
2023-01-30T13:53:25.379Z,88.01
2023-01-30T13:56:44.481Z,88.73
2023-01-30T13:59:53.250Z,86.67
2023-01-30T14:02:58.344Z,87.10
2023-01-30T14:06:00.978Z,86.98
2023-01-30T14:08:46.669Z,87.16
2023-01-30T14:11:35.129Z,87.69
2023-01-30T14:14:28.179Z,87.99
2023-01-30T14:17:16.617Z,87.59
2023-01-30T14:20:13.719Z,86.25
2023-01-30T14:23:19.494Z,86.86
2023-01-30T14:26:04.894Z,86.88
2023-01-30T14:28:51.086Z,86.49
2023-01-30T14:31:48.276Z,86.44
2023-01-30T14:34:40.619Z,86.77
2023-01-30T14:37:35.225Z,85.15
2023-01-30T14:40:23.803Z,86.02
2023-01-30T14:43:12.081Z,85.89
2023-01-30T14:46:07.492Z,86.23
2023-01-30T14:49:04.443Z,86.23
2023-01-30T14:51:50.225Z,87.09
2023-01-30T14:54:42.822Z,86.58
2023-01-30T14:57:33.058Z,87.09
2023-01-30T15:00:21.029Z,87.25
2023-01-30T15:03:20.425Z,86.37
2023-01-30T15:06:07.015Z,86.51
2023-01-30T15:08:52.773Z,87.11
2023-01-30T15:11:38.819Z,86.98
2023-01-30T15:15:10.982Z,87.32
2023-01-30T15:18:08.689Z,86.76
2023-01-30T15:21:03.495Z,86.82
2023-01-30T15:24:12.150Z,87.33
2023-01-30T15:27:24.575Z,86.44
2023-01-30T15:30:29.278Z,86.95
2023-01-30T15:33:29.476Z,86.63
2023-01-30T15:36:34.233Z,86.83
2023-01-30T15:39:23.673Z,86.54
2023-01-30T15:42:15.198Z,87.04
2023-01-30T15:45:11.354Z,87.91
2023-01-30T15:48:16.471Z,87.67
2023-01-30T15:51:03.317Z,89.02
2023-01-30T15:53:49.194Z,89.04
2023-01-30T15:56:35.400Z,89.08
2023-01-30T15:59:32.434Z,89.34
2023-01-30T16:02:29.084Z,89.75
2023-01-30T16:05:18.095Z,89.42
2023-01-30T16:08:18.103Z,90.17
2023-01-30T16:11:03.977Z,89.72
2023-01-30T16:13:49.592Z,90.05
2023-01-30T16:16:35.698Z,89.57
2023-01-30T16:19:29.159Z,88.96
2023-01-30T16:22:20.778Z,89.12
2023-01-30T16:25:15.471Z,89.37
2023-01-30T16:28:03.803Z,89.04
2023-01-30T16:30:49.362Z,89.18
2023-01-30T16:33:37.886Z,89.35
2023-01-30T16:36:23.472Z,89.45
2023-01-30T16:39:34.976Z,89.22
2023-01-30T16:42:30.764Z,89.15
2023-01-30T16:45:21.198Z,89.38
2023-01-30T16:48:30.887Z,88.82
2023-01-30T16:51:22.947Z,89.21
2023-01-30T16:54:18.493Z,88.63
2023-01-30T16:57:05.093Z,88.63
2023-01-30T16:59:51.346Z,89.38
2023-01-30T17:02:39.798Z,89.41
2023-01-30T17:05:28.719Z,89.31
2023-01-30T17:08:48.252Z,88.49
2023-01-30T17:11:43.178Z,88.19
2023-01-30T17:14:32.927Z,88.63
2023-01-30T17:17:19.747Z,89.46
2023-01-30T17:20:05.490Z,88.95
2023-01-30T17:22:57.851Z,88.07
2023-01-30T17:25:46.658Z,88.28
2023-01-30T17:28:32.094Z,88.14
2023-01-30T17:31:17.959Z,88.57
2023-01-30T17:34:03.247Z,88.63
2023-01-30T17:36:50.455Z,88.46
2023-01-30T17:39:36.068Z,88.34
2023-01-30T17:42:22.277Z,88.07
2023-01-30T17:45:08.232Z,88.38
2023-01-30T17:47:54.466Z,87.77
2023-01-30T17:50:40.339Z,87.19
2023-01-30T17:53:25.693Z,87.57
2023-01-30T17:56:22.242Z,88.31
2023-01-30T17:59:13.722Z,87.77
2023-01-30T18:01:59.749Z,87.55
2023-01-30T18:04:45.206Z,87.38
2023-01-30T18:07:30.711Z,86.95
2023-01-30T18:10:19.193Z,86.22
2023-01-30T18:13:05.051Z,86.63
2023-01-30T18:15:52.606Z,86.06
2023-01-30T18:18:38.242Z,86.67
2023-01-30T18:21:23.585Z,86.24
2023-01-30T18:24:09.280Z,86.55
2023-01-30T18:26:54.814Z,86.65
2023-01-30T18:29:40.348Z,87.55
2023-01-30T18:32:25.618Z,86.36
2023-01-30T18:35:11.159Z,87.16
2023-01-30T18:38:00.778Z,86.33
2023-01-30T18:40:47.949Z,86.79
2023-01-30T18:43:33.466Z,86.27
2023-01-30T18:46:19.332Z,86.93
2023-01-30T18:49:04.980Z,86.68
2023-01-30T18:51:50.871Z,87.27
2023-01-30T18:54:37.552Z,86.62
2023-01-30T18:57:22.994Z,86.93
2023-01-30T19:00:09.128Z,87.17
2023-01-30T19:02:55.055Z,86.70
2023-01-30T19:05:40.818Z,86.51
2023-01-30T19:08:26.641Z,86.98
2023-01-30T19:11:36.478Z,86.77
2023-01-30T19:14:21.981Z,86.82
2023-01-30T19:17:07.445Z,85.99
2023-01-30T19:19:52.801Z,86.52
2023-01-30T19:22:39.067Z,84.59
2023-01-30T19:25:24.695Z,84.97
2023-01-30T19:28:10.098Z,85.36
2023-01-30T19:30:55.754Z,85.66
2023-01-30T19:33:45.842Z,85.90
2023-01-30T19:36:32.830Z,85.11
2023-01-30T19:39:18.589Z,84.94
2023-01-30T19:42:04.169Z,84.96
2023-01-30T19:44:49.732Z,85.20
2023-01-30T19:47:35.262Z,85.18
2023-01-30T19:50:21.015Z,85.61
2023-01-30T19:53:06.873Z,85.66
2023-01-30T19:55:53.367Z,84.29
2023-01-30T19:58:40.351Z,84.88
2023-01-30T20:01:29.671Z,85.24
2023-01-30T20:04:15.237Z,85.72
2023-01-30T20:07:00.479Z,85.96
2023-01-30T20:09:45.999Z,85.53
2023-01-30T20:12:32.156Z,85.39
2023-01-30T20:15:17.813Z,85.09
2023-01-30T20:18:03.371Z,85.79
2023-01-30T20:20:48.848Z,85.42
2023-01-30T20:23:34.838Z,85.31
2023-01-30T20:26:25.526Z,85.39
2023-01-30T20:29:11.961Z,85.28
2023-01-30T20:31:58.013Z,85.62
2023-01-30T20:34:43.419Z,84.62
2023-01-30T20:37:28.757Z,85.46
2023-01-30T20:40:17.482Z,85.46
2023-01-30T20:43:03.700Z,85.08
2023-01-30T20:45:49.530Z,85.47
2023-01-30T20:48:36.177Z,85.22
2023-01-30T20:51:27.534Z,85.46
2023-01-30T20:54:15.173Z,85.09
2023-01-30T20:57:02.632Z,85.16
2023-01-30T20:59:48.444Z,85.35
2023-01-30T21:02:33.856Z,85.61
2023-01-30T21:05:20.158Z,85.30
2023-01-30T21:08:06.152Z,84.88
2023-01-30T21:10:51.513Z,85.15
2023-01-30T21:13:38.328Z,85.53
2023-01-30T21:16:26.683Z,84.85
2023-01-30T21:19:16.319Z,85.68
2023-01-30T21:22:07.613Z,85.29
2023-01-30T21:24:52.988Z,85.28
2023-01-30T21:27:40.247Z,84.93
2023-01-30T21:30:26.585Z,85.00
2023-01-30T21:33:11.667Z,84.98
2023-01-30T21:35:59.737Z,84.47
2023-01-30T21:39:03.872Z,85.10
2023-01-30T21:41:52.148Z,84.40
2023-01-30T21:44:38.068Z,84.94
2023-01-30T21:47:23.458Z,84.44
2023-01-30T21:50:09.361Z,85.10
2023-01-30T21:52:54.787Z,84.06
2023-01-30T21:55:40.414Z,83.82
2023-01-30T21:58:25.996Z,84.20
2023-01-30T22:01:11.719Z,84.22
2023-01-30T22:04:00.929Z,84.74
2023-01-30T22:06:46.536Z,85.20
2023-01-30T22:09:32.008Z,84.64
2023-01-30T22:12:17.424Z,85.04
2023-01-30T22:15:02.904Z,85.95
2023-01-30T22:17:51.364Z,85.57
2023-01-30T22:20:36.578Z,85.45
2023-01-30T22:23:22.024Z,84.74
2023-01-30T22:26:08.399Z,85.24
2023-01-30T22:28:58.744Z,85.27
2023-01-30T22:31:45.125Z,84.56
2023-01-30T22:34:30.847Z,85.54
2023-01-30T22:37:16.479Z,85.31
2023-01-30T22:40:02.221Z,85.58
2023-01-30T22:42:48.412Z,85.16
2023-01-30T22:45:36.058Z,85.78
2023-01-30T22:48:21.673Z,85.55
2023-01-30T22:51:16.246Z,84.72
2023-01-30T22:54:05.168Z,85.30
2023-01-30T22:56:51.542Z,84.99
2023-01-30T22:59:36.899Z,84.94
2023-01-30T23:02:22.299Z,84.77
2023-01-30T23:05:07.803Z,85.23
2023-01-30T23:07:53.369Z,84.57
2023-01-30T23:10:40.318Z,85.03
2023-01-30T23:13:26.043Z,85.86
2023-01-30T23:16:12.657Z,85.51
2023-01-30T23:18:58.917Z,85.38
2023-01-30T23:21:45.887Z,85.45
2023-01-30T23:24:31.292Z,85.78
2023-01-30T23:27:20.896Z,85.95
2023-01-30T23:30:06.800Z,86.37
2023-01-30T23:32:52.136Z,85.38
2023-01-30T23:35:40.723Z,85.89
2023-01-30T23:38:25.949Z,85.08
2023-01-30T23:41:14.790Z,85.15
2023-01-30T23:44:01.002Z,86.05
2023-01-30T23:46:46.580Z,86.20
2023-01-30T23:49:32.236Z,85.60
2023-01-30T23:52:17.641Z,86.29
2023-01-30T23:55:03.378Z,86.52
2023-01-30T23:57:49.181Z,86.38
